createdAt,value
2023-02-11T00:01:55.390Z,7.28
2023-02-11T00:04:40.820Z,6.90
2023-02-11T00:07:26.247Z,6.43
2023-02-11T00:10:12.006Z,7.20
2023-02-11T00:12:57.115Z,6.75
2023-02-11T00:15:42.753Z,6.82
2023-02-11T00:18:28.784Z,6.35
2023-02-11T00:21:21.765Z,6.60
2023-02-11T00:24:07.071Z,6.68
2023-02-11T00:26:52.677Z,6.05
2023-02-11T00:29:38.850Z,5.78
2023-02-11T00:32:24.742Z,5.32
2023-02-11T00:35:12.758Z,5.95
2023-02-11T00:37:58.233Z,7.25
2023-02-11T00:40:43.807Z,5.97
2023-02-11T00:43:29.199Z,5.75
2023-02-11T00:46:15.327Z,6.57
2023-02-11T00:49:01.020Z,5.95
2023-02-11T00:51:46.389Z,6.57
2023-02-11T00:54:31.840Z,5.85
2023-02-11T00:57:17.588Z,6.80
2023-02-11T01:00:04.696Z,6.55
2023-02-11T01:02:56.427Z,6.72
2023-02-11T01:05:42.953Z,7.07
2023-02-11T01:08:31.951Z,6.93
2023-02-11T01:11:19.917Z,6.93
2023-02-11T01:14:05.264Z,6.00
2023-02-11T01:16:53.739Z,6.30
2023-02-11T01:19:40.365Z,7.38
2023-02-11T01:22:26.038Z,6.05
2023-02-11T01:25:12.257Z,6.78
2023-02-11T01:27:58.648Z,6.13
2023-02-11T01:30:44.834Z,7.07
2023-02-11T01:33:31.066Z,8.07
2023-02-11T01:36:17.055Z,6.78
2023-02-11T01:39:02.664Z,7.72
2023-02-11T01:41:48.005Z,6.60
2023-02-11T01:44:36.960Z,6.80
2023-02-11T01:47:22.504Z,6.35
2023-02-11T01:50:08.185Z,7.68
2023-02-11T01:52:54.377Z,6.55
2023-02-11T01:55:58.880Z,6.50
2023-02-11T01:58:47.818Z,6.90
2023-02-11T02:01:35.411Z,7.05
2023-02-11T02:04:23.699Z,6.40
2023-02-11T02:07:22.234Z,7.63
2023-02-11T02:10:13.771Z,7.50
2023-02-11T02:12:59.494Z,6.65
2023-02-11T02:15:53.584Z,7.70
2023-02-11T02:19:03.422Z,7.28
2023-02-11T02:22:26.859Z,7.47
2023-02-11T02:25:33.547Z,7.15
2023-02-11T02:28:25.576Z,8.30
2023-02-11T02:31:31.750Z,8.07
2023-02-11T02:34:33.486Z,7.97
2023-02-11T02:37:29.755Z,7.63
2023-02-11T02:40:31.046Z,7.80
2023-02-11T02:43:21.143Z,8.48
2023-02-11T02:46:17.681Z,8.95
2023-02-11T02:49:03.905Z,8.88
2023-02-11T02:52:11.371Z,7.97
2023-02-11T02:55:32.085Z,7.70
2023-02-11T02:58:53.218Z,8.60
2023-02-11T03:02:06.444Z,9.20
2023-02-11T03:05:06.858Z,9.65
2023-02-11T03:08:14.696Z,9.40
2023-02-11T03:11:04.032Z,9.90
2023-02-11T03:13:52.436Z,11.25
2023-02-11T03:16:43.645Z,10.00
2023-02-11T03:19:34.500Z,11.43
2023-02-11T03:22:27.977Z,10.77
2023-02-11T03:25:22.814Z,10.93
2023-02-11T03:28:29.828Z,11.35
2023-02-11T03:31:39.848Z,10.07
2023-02-11T03:34:41.915Z,10.75
2023-02-11T03:37:42.097Z,10.88
2023-02-11T03:40:32.027Z,11.07
2023-02-11T03:43:40.939Z,11.25
2023-02-11T03:46:32.584Z,11.52
2023-02-11T03:49:25.012Z,11.32
2023-02-11T03:52:12.511Z,12.18
2023-02-11T03:55:00.622Z,11.73
2023-02-11T03:57:47.409Z,12.07
2023-02-11T04:00:37.247Z,11.30
2023-02-11T04:03:25.634Z,11.15
2023-02-11T04:06:11.452Z,11.40
2023-02-11T04:08:56.882Z,12.50
2023-02-11T04:11:42.360Z,12.70
2023-02-11T04:14:27.945Z,13.45
2023-02-11T04:17:16.456Z,12.77
2023-02-11T04:20:02.344Z,12.80
2023-02-11T04:22:47.905Z,14.25
2023-02-11T04:25:33.607Z,13.93
2023-02-11T04:28:22.191Z,14.00
2023-02-11T04:31:07.905Z,14.25
2023-02-11T04:33:53.315Z,14.65
2023-02-11T04:36:38.606Z,16.23
2023-02-11T04:39:24.152Z,14.80
2023-02-11T04:42:09.624Z,14.13
2023-02-11T04:44:55.351Z,16.38
2023-02-11T04:47:40.965Z,15.30
2023-02-11T04:50:28.962Z,17.67
2023-02-11T04:53:14.312Z,15.25
2023-02-11T04:56:02.579Z,17.70
2023-02-11T04:58:47.903Z,18.60
2023-02-11T05:01:33.634Z,20.02
2023-02-11T05:04:19.473Z,19.80
2023-02-11T05:07:04.863Z,19.83
2023-02-11T05:09:50.283Z,18.77
2023-02-11T05:12:36.054Z,19.58
2023-02-11T05:15:24.072Z,22.23
2023-02-11T05:18:12.553Z,23.00
2023-02-11T05:20:57.919Z,24.88
2023-02-11T05:23:43.964Z,24.38
2023-02-11T05:26:29.288Z,26.92
2023-02-11T05:29:15.041Z,27.35
2023-02-11T05:32:00.448Z,27.70
2023-02-11T05:34:46.154Z,26.40
2023-02-11T05:37:31.715Z,27.48
2023-02-11T05:40:19.849Z,28.15
2023-02-11T05:43:05.151Z,27.77
2023-02-11T05:45:51.134Z,29.17
2023-02-11T05:48:39.948Z,28.13
2023-02-11T05:51:25.466Z,32.05
2023-02-11T05:54:11.042Z,32.40
2023-02-11T05:56:59.325Z,31.92
2023-02-11T05:59:44.965Z,31.83
2023-02-11T06:02:30.340Z,31.73
2023-02-11T06:05:15.818Z,32.75
2023-02-11T06:08:01.520Z,32.97
2023-02-11T06:10:46.989Z,32.33
2023-02-11T06:13:32.153Z,34.10
2023-02-11T06:16:18.146Z,33.05
2023-02-11T06:19:03.807Z,34.13
2023-02-11T06:21:49.566Z,34.92
2023-02-11T06:24:58.548Z,34.53
2023-02-11T06:27:42.973Z,35.35
2023-02-11T06:30:28.560Z,34.42
2023-02-11T06:33:15.830Z,33.40
2023-02-11T06:36:01.656Z,35.53
2023-02-11T06:38:47.920Z,34.15
2023-02-11T06:41:33.755Z,34.88
2023-02-11T06:44:19.503Z,37.70
2023-02-11T06:47:05.552Z,35.75
2023-02-11T06:49:52.770Z,35.63
2023-02-11T06:52:38.672Z,36.03
2023-02-11T06:55:24.033Z,36.33
2023-02-11T06:58:09.562Z,36.88
2023-02-11T07:01:06.683Z,37.08
2023-02-11T07:03:55.204Z,37.83
2023-02-11T07:06:44.030Z,37.35
2023-02-11T07:09:29.908Z,37.53
2023-02-11T07:12:15.297Z,37.25
2023-02-11T07:15:00.713Z,36.00
2023-02-11T07:17:54.797Z,36.67
2023-02-11T07:20:40.494Z,34.67
2023-02-11T07:23:26.256Z,35.42
2023-02-11T07:26:14.630Z,34.72
2023-02-11T07:29:03.499Z,36.78
2023-02-11T07:31:49.317Z,33.58
2023-02-11T07:34:36.408Z,35.58
2023-02-11T07:37:25.053Z,36.00
2023-02-11T07:40:13.526Z,36.90
2023-02-11T07:43:01.204Z,37.05
2023-02-11T07:45:46.429Z,37.25
2023-02-11T07:48:34.647Z,38.05
2023-02-11T07:51:23.544Z,36.35
2023-02-11T07:54:11.180Z,35.75
2023-02-11T07:56:56.384Z,36.58
2023-02-11T07:59:42.438Z,35.85
2023-02-11T08:02:28.213Z,36.33
2023-02-11T08:05:13.775Z,34.13
2023-02-11T08:08:19.668Z,35.03
2023-02-11T08:11:15.494Z,35.33
2023-02-11T08:14:01.357Z,33.05
2023-02-11T08:16:46.951Z,32.35
2023-02-11T08:19:35.412Z,32.70
2023-02-11T08:22:21.017Z,33.25
2023-02-11T08:25:09.522Z,31.35
2023-02-11T08:27:55.104Z,33.78
2023-02-11T08:30:40.377Z,33.92
2023-02-11T08:33:26.205Z,35.40
2023-02-11T08:36:17.554Z,32.13
2023-02-11T08:39:22.208Z,32.42
2023-02-11T08:42:08.169Z,31.73
2023-02-11T08:44:53.626Z,32.65
2023-02-11T08:47:39.891Z,31.80
2023-02-11T08:50:27.010Z,32.13
2023-02-11T08:53:12.344Z,32.80
2023-02-11T08:56:02.172Z,32.28
2023-02-11T08:58:48.231Z,31.70
2023-02-11T09:01:34.732Z,31.35
2023-02-11T09:04:20.402Z,31.17
2023-02-11T09:07:06.422Z,32.65
2023-02-11T09:09:54.406Z,30.85
2023-02-11T09:12:40.132Z,30.23
2023-02-11T09:15:25.693Z,30.70
2023-02-11T09:18:11.096Z,29.58
2023-02-11T09:21:08.879Z,29.25
2023-02-11T09:23:54.785Z,28.15
2023-02-11T09:26:42.360Z,29.15
2023-02-11T09:29:28.215Z,27.70
2023-02-11T09:32:14.006Z,26.33
2023-02-11T09:35:01.963Z,26.35
2023-02-11T09:37:49.887Z,24.88
2023-02-11T09:40:35.261Z,24.63
2023-02-11T09:43:30.728Z,23.95
2023-02-11T09:46:18.814Z,24.15
2023-02-11T09:49:06.032Z,23.38
2023-02-11T09:52:12.103Z,23.88
2023-02-11T09:55:00.174Z,23.48
2023-02-11T09:57:45.789Z,22.48
2023-02-11T10:00:43.456Z,20.92
2023-02-11T10:03:53.518Z,20.98
2023-02-11T10:06:50.467Z,21.73
2023-02-11T10:09:49.896Z,19.75
2023-02-11T10:12:50.987Z,17.92
2023-02-11T10:16:15.007Z,18.02
2023-02-11T10:19:11.321Z,16.80
2023-02-11T10:22:22.821Z,16.92
2023-02-11T10:25:28.744Z,15.68
2023-02-11T10:28:20.743Z,16.70
2023-02-11T10:31:18.487Z,16.75
2023-02-11T10:34:07.186Z,15.13
2023-02-11T10:36:57.260Z,15.20
2023-02-11T10:39:45.041Z,14.60
2023-02-11T10:42:30.808Z,14.65
2023-02-11T10:45:54.148Z,12.05
2023-02-11T10:48:43.863Z,11.85
2023-02-11T10:51:33.707Z,9.45
2023-02-11T10:54:24.309Z,8.60
2023-02-11T10:57:19.619Z,8.50
2023-02-11T11:00:39.101Z,8.32
2023-02-11T11:03:34.448Z,7.85
2023-02-11T11:06:31.861Z,8.50
2023-02-11T11:09:43.028Z,9.05
2023-02-11T11:12:47.295Z,9.00
2023-02-11T11:15:33.052Z,8.55
2023-02-11T11:18:22.488Z,8.57
2023-02-11T11:21:19.176Z,8.88
2023-02-11T11:24:04.933Z,7.97
2023-02-11T11:26:57.268Z,8.10
2023-02-11T11:29:51.768Z,7.95
2023-02-11T11:32:37.153Z,8.13
2023-02-11T11:35:33.105Z,8.77
2023-02-11T11:38:18.686Z,8.82
2023-02-11T11:41:19.716Z,9.65
2023-02-11T11:44:39.876Z,8.93
2023-02-11T11:51:00.340Z,9.00
2023-02-11T11:53:53.320Z,8.02
2023-02-11T11:56:53.348Z,8.55
2023-02-11T11:59:38.873Z,8.82
2023-02-11T12:02:50.937Z,8.45
2023-02-11T12:06:06.225Z,8.35
2023-02-11T12:09:15.966Z,7.72
2023-02-11T12:12:26.724Z,7.70
2023-02-11T12:15:20.384Z,9.05
2023-02-11T12:18:13.333Z,9.43
2023-02-11T12:21:19.949Z,7.97
2023-02-11T12:24:17.342Z,8.52
2023-02-11T12:27:29.552Z,7.80
2023-02-11T12:30:22.397Z,8.02
2023-02-11T12:33:39.141Z,7.43
2023-02-11T12:36:54.643Z,7.28
2023-02-11T12:39:58.924Z,7.00
2023-02-11T12:43:18.042Z,7.10
2023-02-11T12:46:41.197Z,6.40
2023-02-11T12:49:48.096Z,6.63
2023-02-11T12:52:57.121Z,7.38
2023-02-11T12:55:46.970Z,6.80
2023-02-11T12:58:44.883Z,6.43
2023-02-11T13:01:39.427Z,6.50
2023-02-11T13:04:42.253Z,6.47
2023-02-11T13:07:33.554Z,6.70
2023-02-11T13:10:36.724Z,6.90
2023-02-11T13:13:31.583Z,6.53
2023-02-11T13:16:40.359Z,6.88
2023-02-11T13:19:54.351Z,7.15
2023-02-11T13:23:02.827Z,6.63
2023-02-11T13:26:33.537Z,6.85
2023-02-11T13:29:37.592Z,6.20
2023-02-11T13:32:24.110Z,6.63
2023-02-11T13:35:29.752Z,6.30
2023-02-11T13:38:27.587Z,6.72
2023-02-11T13:41:28.522Z,6.93
2023-02-11T13:44:24.899Z,6.63
2023-02-11T13:47:33.484Z,6.28
2023-02-11T13:50:24.989Z,5.60
2023-02-11T13:53:16.153Z,6.72
2023-02-11T13:56:12.246Z,6.70
2023-02-11T13:59:03.809Z,6.25
2023-02-11T14:02:07.909Z,6.53
2023-02-11T14:05:53.627Z,7.05
2023-02-11T14:08:58.830Z,7.20
2023-02-11T14:11:58.072Z,7.05
2023-02-11T14:15:25.154Z,6.40
2023-02-11T14:18:49.193Z,6.22
2023-02-11T14:21:39.343Z,5.97
2023-02-11T14:24:27.462Z,6.18
2023-02-11T14:27:33.035Z,6.13
2023-02-11T14:30:39.440Z,6.30
2023-02-11T14:33:46.180Z,5.97
2023-02-11T14:36:49.800Z,6.40
2023-02-11T14:40:04.915Z,6.35
2023-02-11T14:42:55.481Z,6.25
2023-02-11T14:45:44.293Z,7.18
2023-02-11T14:48:46.338Z,6.40
2023-02-11T14:51:43.460Z,6.13
2023-02-11T14:54:30.116Z,6.78
2023-02-11T14:57:18.495Z,5.68
2023-02-11T15:00:16.411Z,6.32
2023-02-11T15:03:01.809Z,6.07
2023-02-11T15:05:53.884Z,5.57
2023-02-11T15:08:46.853Z,5.75
2023-02-11T15:11:39.553Z,5.90
2023-02-11T15:14:29.000Z,5.60
2023-02-11T15:17:26.272Z,6.25
2023-02-11T15:20:25.790Z,5.97
2023-02-11T15:23:21.992Z,5.75
2023-02-11T15:26:15.431Z,6.45
2023-02-11T15:29:00.950Z,6.30
2023-02-11T15:31:48.473Z,6.43
2023-02-11T15:34:34.370Z,5.47
2023-02-11T15:37:31.780Z,5.32
2023-02-11T15:40:19.994Z,6.25
2023-02-11T15:43:08.913Z,6.45
2023-02-11T15:46:01.731Z,6.13
2023-02-11T15:49:04.473Z,5.60
2023-02-11T15:51:51.947Z,5.75
2023-02-11T15:54:38.092Z,5.93
2023-02-11T15:57:26.094Z,5.90
2023-02-11T16:00:19.805Z,6.40
2023-02-11T16:03:05.472Z,6.28
2023-02-11T16:05:56.533Z,5.95
2023-02-11T16:09:02.412Z,6.00
2023-02-11T16:11:47.890Z,6.22
2023-02-11T16:14:52.468Z,6.00
2023-02-11T16:17:38.136Z,5.03
2023-02-11T16:20:24.784Z,6.60
2023-02-11T16:23:24.628Z,6.43
2023-02-11T16:26:26.914Z,6.63
2023-02-11T16:29:16.122Z,6.07
2023-02-11T16:32:17.624Z,6.15
2023-02-11T16:35:10.828Z,6.38
2023-02-11T16:37:56.681Z,5.68
2023-02-11T16:40:44.480Z,6.57
2023-02-11T16:43:30.197Z,6.22
2023-02-11T16:46:18.672Z,5.35
2023-02-11T16:49:20.585Z,6.03
2023-02-11T16:52:14.263Z,5.97
2023-02-11T16:55:06.648Z,6.72
2023-02-11T16:57:52.201Z,5.68
2023-02-11T17:00:37.867Z,6.00
2023-02-11T17:03:29.527Z,5.78
2023-02-11T17:06:15.212Z,5.93
2023-02-11T17:09:00.814Z,5.80
2023-02-11T17:11:46.505Z,6.05
2023-02-11T17:14:32.389Z,6.70
2023-02-11T17:17:17.764Z,6.38
2023-02-11T17:20:03.887Z,7.00
2023-02-11T17:22:49.210Z,6.90
2023-02-11T17:25:37.373Z,6.60
2023-02-11T17:28:23.350Z,6.18
2023-02-11T17:31:12.122Z,5.78
2023-02-11T17:33:57.838Z,6.28
2023-02-11T17:36:43.624Z,6.90
2023-02-11T17:39:28.865Z,6.45
2023-02-11T17:42:14.810Z,6.82
2023-02-11T17:45:00.456Z,7.40
2023-02-11T17:47:48.172Z,6.82
2023-02-11T17:50:36.748Z,7.05
2023-02-11T17:53:24.814Z,7.03
2023-02-11T17:56:10.409Z,6.85
2023-02-11T17:58:56.071Z,7.55
2023-02-11T18:01:42.508Z,7.40
2023-02-11T18:04:28.177Z,7.28
2023-02-11T18:07:13.984Z,6.90
2023-02-11T18:09:59.332Z,7.80
2023-02-11T18:12:44.891Z,7.78
2023-02-11T18:15:33.341Z,7.32
2023-02-11T18:18:18.929Z,8.48
2023-02-11T18:21:08.452Z,10.68
2023-02-11T18:23:54.202Z,8.15
2023-02-11T18:26:39.429Z,9.02
2023-02-11T18:29:25.225Z,9.00
2023-02-11T18:32:10.748Z,8.43
2023-02-11T18:34:55.875Z,9.18
2023-02-11T18:37:44.558Z,8.93
2023-02-11T18:40:30.124Z,9.27
2023-02-11T18:43:15.949Z,10.68
2023-02-11T18:46:11.924Z,9.93
2023-02-11T18:48:57.280Z,9.45
2023-02-11T18:51:42.746Z,10.07
2023-02-11T18:54:28.318Z,9.98
2023-02-11T18:57:13.746Z,10.25
2023-02-11T19:00:01.840Z,9.68
2023-02-11T19:02:47.175Z,9.15
2023-02-11T19:05:47.843Z,9.60
2023-02-11T19:08:33.017Z,9.82
2023-02-11T19:11:20.165Z,10.10
2023-02-11T19:14:10.061Z,10.02
2023-02-11T19:16:58.022Z,10.90
2023-02-11T19:19:43.633Z,9.77
2023-02-11T19:22:29.496Z,10.95
2023-02-11T19:25:19.330Z,9.57
2023-02-11T19:28:06.110Z,9.95
2023-02-11T19:30:51.763Z,10.52
2023-02-11T19:33:39.900Z,10.18
2023-02-11T19:36:25.356Z,10.10
2023-02-11T19:39:10.809Z,11.30
2023-02-11T19:41:57.452Z,10.15
2023-02-11T19:44:43.019Z,10.20
2023-02-11T19:47:31.067Z,10.35
2023-02-11T19:50:16.767Z,9.60
2023-02-11T19:53:02.642Z,10.85
2023-02-11T19:55:48.964Z,9.82
2023-02-11T19:58:39.523Z,10.05
2023-02-11T20:01:26.457Z,10.48
2023-02-11T20:04:19.946Z,9.90
2023-02-11T20:07:08.687Z,10.18
2023-02-11T20:09:54.538Z,10.82
2023-02-11T20:12:40.137Z,10.85
2023-02-11T20:15:26.355Z,12.55
2023-02-11T20:18:11.937Z,10.77
2023-02-11T20:21:00.153Z,10.98
2023-02-11T20:23:46.751Z,11.30
2023-02-11T20:26:34.788Z,11.07
2023-02-11T20:29:20.569Z,10.02
2023-02-11T20:32:07.369Z,10.52
2023-02-11T20:34:54.188Z,10.40
2023-02-11T20:37:44.182Z,10.95
2023-02-11T20:40:29.695Z,11.05
2023-02-11T20:43:19.931Z,10.18
2023-02-11T20:46:06.887Z,10.65
2023-02-11T20:48:54.883Z,9.40
2023-02-11T20:51:40.573Z,11.80
2023-02-11T20:54:26.656Z,10.82
2023-02-11T20:57:12.403Z,11.38
2023-02-11T20:59:57.713Z,10.88
2023-02-11T21:02:45.724Z,11.75
2023-02-11T21:05:31.693Z,11.68
2023-02-11T21:08:17.279Z,11.70
2023-02-11T21:11:02.952Z,11.68
2023-02-11T21:13:51.107Z,12.07
2023-02-11T21:16:36.532Z,12.73
2023-02-11T21:19:25.181Z,12.52
2023-02-11T21:22:10.965Z,12.43
2023-02-11T21:24:56.558Z,12.75
2023-02-11T21:27:42.036Z,14.20
2023-02-11T21:30:27.736Z,13.52
2023-02-11T21:33:13.216Z,14.18
2023-02-11T21:36:00.314Z,13.38
2023-02-11T21:38:45.848Z,14.07
2023-02-11T21:41:31.845Z,14.40
2023-02-11T21:44:17.883Z,14.05
2023-02-11T21:47:06.418Z,13.13
2023-02-11T21:49:51.881Z,13.95
2023-02-11T21:52:37.621Z,13.63
2023-02-11T21:55:23.233Z,14.40
2023-02-11T21:58:09.640Z,12.88
2023-02-11T22:00:55.134Z,13.07
2023-02-11T22:03:41.010Z,13.68
2023-02-11T22:06:32.759Z,13.05
2023-02-11T22:09:18.111Z,11.82
2023-02-11T22:12:03.873Z,13.02
2023-02-11T22:14:49.549Z,12.00
2023-02-11T22:17:38.442Z,12.20
2023-02-11T22:20:23.861Z,12.10
2023-02-11T22:23:18.636Z,12.15
2023-02-11T22:26:13.087Z,10.90
2023-02-11T22:28:58.730Z,12.82
2023-02-11T22:31:44.304Z,11.65
2023-02-11T22:34:29.724Z,11.00
2023-02-11T22:37:15.458Z,11.82
2023-02-11T22:40:00.864Z,12.30
2023-02-11T22:42:46.389Z,11.48
2023-02-11T22:45:34.149Z,13.07
2023-02-11T22:48:22.156Z,12.18
2023-02-11T22:51:17.411Z,13.05
2023-02-11T22:54:05.381Z,12.10
2023-02-11T22:56:51.601Z,12.27
2023-02-11T22:59:37.048Z,13.60
2023-02-11T23:02:22.604Z,11.57
2023-02-11T23:05:07.922Z,11.65
2023-02-11T23:07:53.380Z,11.18
2023-02-11T23:10:39.907Z,12.30
2023-02-11T23:13:25.737Z,12.00
2023-02-11T23:16:16.297Z,11.63
2023-02-11T23:19:04.558Z,11.38
2023-02-11T23:21:52.815Z,12.57
2023-02-11T23:24:38.512Z,11.90
2023-02-11T23:30:09.451Z,11.23
2023-02-11T23:32:55.052Z,12.20
2023-02-11T23:35:40.476Z,12.02
2023-02-11T23:38:26.209Z,12.48
2023-02-11T23:41:12.178Z,12.35
2023-02-11T23:43:58.449Z,12.65
2023-02-11T23:46:46.691Z,12.52
2023-02-11T23:49:32.031Z,12.07
2023-02-11T23:52:18.053Z,13.15
2023-02-11T23:55:04.167Z,12.93
2023-02-11T23:57:49.458Z,13.02
